createdAt,value
2023-09-19T00:00:30.826Z,19.69
2023-09-19T00:01:35.265Z,19.68
2023-09-19T00:02:39.697Z,19.67
2023-09-19T00:03:44.805Z,19.66
2023-09-19T00:04:48.528Z,19.65
2023-09-19T00:05:52.979Z,19.64
2023-09-19T00:06:57.402Z,19.63
2023-09-19T00:08:01.845Z,19.62
2023-09-19T00:09:06.241Z,19.61
2023-09-19T00:10:10.678Z,19.60
2023-09-19T00:11:15.100Z,19.60
2023-09-19T00:12:19.558Z,19.59
2023-09-19T00:13:24.021Z,19.58
2023-09-19T00:14:28.432Z,19.57
2023-09-19T00:15:32.819Z,19.56
2023-09-19T00:16:37.448Z,19.56
2023-09-19T00:17:41.944Z,19.55
2023-09-19T00:18:46.229Z,19.54
2023-09-19T00:19:50.684Z,19.53
2023-09-19T00:20:55.142Z,19.53
2023-09-19T00:22:05.584Z,19.52
2023-09-19T00:23:08.708Z,19.51
2023-09-19T00:24:13.132Z,19.51
2023-09-19T00:25:17.552Z,19.50
2023-09-19T00:26:21.974Z,19.50
2023-09-19T00:27:26.402Z,19.49
2023-09-19T00:28:30.894Z,19.48
2023-09-19T00:29:35.330Z,19.48
2023-09-19T00:30:39.872Z,19.47
2023-09-19T00:31:44.217Z,19.46
2023-09-19T00:32:54.723Z,19.45
2023-09-19T00:33:57.802Z,19.45
2023-09-19T00:35:02.202Z,19.45
2023-09-19T00:36:06.915Z,19.44
2023-09-19T00:37:11.080Z,19.44
2023-09-19T00:38:15.503Z,19.44
2023-09-19T00:39:19.949Z,19.43
2023-09-19T00:40:24.410Z,19.43
2023-09-19T00:41:28.795Z,19.43
2023-09-19T00:42:39.221Z,19.42
2023-09-19T00:43:42.586Z,19.42
2023-09-19T00:44:46.763Z,19.43
2023-09-19T00:45:51.221Z,19.44
2023-09-19T00:46:55.849Z,19.44
2023-09-19T00:48:00.194Z,19.45
2023-09-19T00:49:04.494Z,19.45
2023-09-19T00:50:08.947Z,19.44
2023-09-19T00:51:13.344Z,19.45
2023-09-19T00:52:17.972Z,19.44
2023-09-19T00:53:22.450Z,19.44
2023-09-19T00:54:26.852Z,19.45
2023-09-19T00:55:45.512Z,19.45
2023-09-19T00:56:48.615Z,19.45
2023-09-19T00:57:58.971Z,19.45
2023-09-19T00:59:02.080Z,19.46
2023-09-19T01:00:06.574Z,19.47
2023-09-19T01:01:10.963Z,19.48
2023-09-19T01:02:15.416Z,19.50
2023-09-19T01:03:20.072Z,19.50
2023-09-19T01:04:24.263Z,19.50
2023-09-19T01:05:28.659Z,19.51
2023-09-19T01:06:33.097Z,19.50
2023-09-19T01:07:37.538Z,19.50
2023-09-19T01:08:41.916Z,19.49
2023-09-19T01:09:46.361Z,19.48
2023-09-19T01:10:50.837Z,19.47
2023-09-19T01:11:55.214Z,19.45
2023-09-19T01:12:59.626Z,19.46
2023-09-19T01:14:03.949Z,19.46
2023-09-19T01:15:08.453Z,19.46
2023-09-19T01:16:13.465Z,19.45
2023-09-19T01:17:17.378Z,19.45
2023-09-19T01:18:21.773Z,19.45
2023-09-19T01:19:26.318Z,19.43
2023-09-19T01:20:30.667Z,19.41
2023-09-19T01:21:49.110Z,19.40
2023-09-19T01:22:52.532Z,19.38
2023-09-19T01:23:56.909Z,19.39
2023-09-19T01:25:01.336Z,19.39
2023-09-19T01:26:05.750Z,19.39
2023-09-19T01:27:10.198Z,19.39
2023-09-19T01:28:14.632Z,19.39
2023-09-19T01:29:19.025Z,19.39
2023-09-19T01:30:23.473Z,19.39
2023-09-19T01:31:27.944Z,19.39
2023-09-19T01:32:32.397Z,19.39
2023-09-19T01:33:36.782Z,19.39
2023-09-19T01:34:41.202Z,19.38
2023-09-19T01:35:45.621Z,19.37
2023-09-19T01:36:50.077Z,19.36
2023-09-19T01:37:54.479Z,19.35
2023-09-19T01:38:58.925Z,19.34
2023-09-19T01:40:03.345Z,19.33
2023-09-19T01:41:07.752Z,19.32
2023-09-19T01:42:12.185Z,19.30
2023-09-19T01:43:16.770Z,19.29
2023-09-19T01:44:21.105Z,19.27
2023-09-19T01:45:25.580Z,19.26
2023-09-19T01:46:30.070Z,19.24
2023-09-19T01:47:34.424Z,19.23
2023-09-19T01:48:38.910Z,19.22
2023-09-19T01:49:43.362Z,19.20
2023-09-19T01:50:47.689Z,19.18
2023-09-19T01:51:52.128Z,19.16
2023-09-19T01:52:56.579Z,19.15
2023-09-19T01:54:00.985Z,19.13
2023-09-19T01:55:05.391Z,19.11
2023-09-19T01:56:09.836Z,19.09
2023-09-19T01:57:14.276Z,19.08
2023-09-19T01:58:24.708Z,19.07
2023-09-19T01:59:41.873Z,19.06
2023-09-19T02:00:45.295Z,19.05
2023-09-19T02:01:49.816Z,19.04
2023-09-19T02:02:54.147Z,19.02
2023-09-19T02:03:58.511Z,19.01
2023-09-19T02:05:02.888Z,19.00
2023-09-19T02:06:07.306Z,18.97
2023-09-19T02:07:11.867Z,18.96
2023-09-19T02:08:16.134Z,18.95
2023-09-19T02:09:20.604Z,18.94
2023-09-19T02:10:25.056Z,18.93
2023-09-19T02:11:29.384Z,18.92
2023-09-19T02:12:33.816Z,18.92
2023-09-19T02:13:41.403Z,18.92
2023-09-19T02:14:44.738Z,18.92
2023-09-19T02:15:49.204Z,18.93
2023-09-19T02:16:53.662Z,18.93
2023-09-19T02:17:58.180Z,18.93
2023-09-19T02:19:02.430Z,18.93
2023-09-19T02:20:06.838Z,18.94
2023-09-19T02:21:11.248Z,18.93
2023-09-19T02:22:15.732Z,18.93
2023-09-19T02:23:20.154Z,18.93
2023-09-19T02:24:24.569Z,18.92
2023-09-19T02:25:43.103Z,18.92
2023-09-19T02:26:46.282Z,18.91
2023-09-19T02:27:50.658Z,18.91
2023-09-19T02:28:55.032Z,18.91
2023-09-19T02:29:59.464Z,18.91
2023-09-19T02:31:04.004Z,18.90
2023-09-19T02:32:08.486Z,18.90
2023-09-19T02:33:12.794Z,18.90
2023-09-19T02:34:17.221Z,18.90
2023-09-19T02:35:21.643Z,18.90
2023-09-19T02:36:26.084Z,18.88
2023-09-19T02:37:30.543Z,18.86
2023-09-19T02:38:48.935Z,18.85
2023-09-19T02:39:58.082Z,18.84
2023-09-19T02:41:01.143Z,18.83
2023-09-19T02:42:05.512Z,18.83
2023-09-19T02:43:09.929Z,18.83
2023-09-19T02:44:14.438Z,18.81
2023-09-19T02:45:18.834Z,18.79
2023-09-19T02:46:23.334Z,18.77
2023-09-19T02:47:27.861Z,18.76
2023-09-19T02:48:32.157Z,18.75
2023-09-19T02:49:36.598Z,18.75
2023-09-19T02:50:41.004Z,18.74
2023-09-19T02:51:45.457Z,18.74
2023-09-19T02:52:50.180Z,18.73
2023-09-19T02:53:54.308Z,18.73
2023-09-19T02:54:58.767Z,18.72
2023-09-19T02:56:03.205Z,18.72
2023-09-19T02:57:07.614Z,18.72
2023-09-19T02:58:12.123Z,18.72
2023-09-19T02:59:16.448Z,18.71
2023-09-19T03:00:20.893Z,18.70
2023-09-19T03:01:25.431Z,18.70
2023-09-19T03:02:29.798Z,18.69
2023-09-19T03:03:34.199Z,18.68
2023-09-19T03:04:38.615Z,18.67
2023-09-19T03:05:42.967Z,18.67
2023-09-19T03:06:47.408Z,18.66
2023-09-19T03:07:52.063Z,18.64
2023-09-19T03:08:56.242Z,18.63
2023-09-19T03:10:00.681Z,18.62
2023-09-19T03:11:05.087Z,18.61
2023-09-19T03:12:09.494Z,18.60
2023-09-19T03:13:13.974Z,18.59
2023-09-19T03:14:18.374Z,18.58
2023-09-19T03:15:22.807Z,18.57
2023-09-19T03:16:27.340Z,18.57
2023-09-19T03:17:31.769Z,18.56
2023-09-19T03:18:36.045Z,18.55
2023-09-19T03:19:54.607Z,18.54
2023-09-19T03:20:58.025Z,18.53
2023-09-19T03:22:02.434Z,18.53
2023-09-19T03:23:06.817Z,18.53
2023-09-19T03:24:11.271Z,18.52
2023-09-19T03:25:15.817Z,18.52
2023-09-19T03:26:20.168Z,18.51
2023-09-19T03:27:24.629Z,18.50
2023-09-19T03:28:29.048Z,18.49
2023-09-19T03:29:35.590Z,18.47
2023-09-19T03:30:51.891Z,18.47
2023-09-19T03:31:55.211Z,18.46
2023-09-19T03:32:59.522Z,18.45
2023-09-19T03:34:03.838Z,18.44
2023-09-19T03:35:08.298Z,18.44
2023-09-19T03:36:12.657Z,18.43
2023-09-19T03:37:17.105Z,18.42
2023-09-19T03:38:21.482Z,18.42
2023-09-19T03:39:25.904Z,18.41
2023-09-19T03:40:30.326Z,18.40
2023-09-19T03:41:34.684Z,18.39
2023-09-19T03:42:39.146Z,18.38
2023-09-19T03:43:43.717Z,18.37
2023-09-19T03:44:51.043Z,18.36
2023-09-19T03:45:54.641Z,18.34
2023-09-19T03:46:59.116Z,18.32
2023-09-19T03:48:03.402Z,18.30
2023-09-19T03:49:07.850Z,18.30
2023-09-19T03:50:12.483Z,18.29
2023-09-19T03:51:16.618Z,18.28
2023-09-19T03:52:21.064Z,18.27
2023-09-19T03:53:25.429Z,18.27
2023-09-19T03:54:29.930Z,18.26
2023-09-19T03:55:34.347Z,18.26
2023-09-19T03:56:38.752Z,18.25
2023-09-19T03:57:43.124Z,18.25
2023-09-19T03:58:47.594Z,18.25
2023-09-19T03:59:51.936Z,18.24
2023-09-19T04:00:56.472Z,18.24
2023-09-19T04:02:00.783Z,18.22
2023-09-19T04:03:05.318Z,18.22
2023-09-19T04:04:09.667Z,18.22
2023-09-19T04:05:14.000Z,18.22
2023-09-19T04:06:18.435Z,18.21
2023-09-19T04:07:22.847Z,18.20
2023-09-19T04:08:27.098Z,18.19
2023-09-19T04:09:31.600Z,18.18
2023-09-19T04:10:36.015Z,18.16
2023-09-19T04:11:40.372Z,18.16
2023-09-19T04:12:44.789Z,18.16
2023-09-19T04:13:49.234Z,18.15
2023-09-19T04:14:53.542Z,18.16
2023-09-19T04:15:58.079Z,18.16
2023-09-19T04:17:02.556Z,18.16
2023-09-19T04:18:06.999Z,18.16
2023-09-19T04:19:11.390Z,18.16
2023-09-19T04:20:15.782Z,18.15
2023-09-19T04:21:20.224Z,18.13
2023-09-19T04:22:30.741Z,18.13
2023-09-19T04:23:33.884Z,18.14
2023-09-19T04:24:38.245Z,18.14
2023-09-19T04:25:42.683Z,18.14
2023-09-19T04:26:47.054Z,18.15
2023-09-19T04:27:51.497Z,18.16
2023-09-19T04:28:56.001Z,18.17
2023-09-19T04:30:00.540Z,18.17
2023-09-19T04:31:07.771Z,18.16
2023-09-19T04:32:11.331Z,18.15
2023-09-19T04:33:15.635Z,18.15
2023-09-19T04:34:20.060Z,18.14
2023-09-19T04:35:24.407Z,18.12
2023-09-19T04:36:36.535Z,18.11
2023-09-19T04:37:37.948Z,18.10
2023-09-19T04:38:43.524Z,18.08
2023-09-19T04:39:46.698Z,18.07
2023-09-19T04:40:51.156Z,18.05
2023-09-19T04:41:55.492Z,18.03
2023-09-19T04:43:05.940Z,18.02
2023-09-19T04:44:08.876Z,18.01
2023-09-19T04:45:13.427Z,17.99
2023-09-19T04:46:17.831Z,17.98
2023-09-19T04:47:22.248Z,17.96
2023-09-19T04:48:26.526Z,17.95
2023-09-19T04:49:30.989Z,17.93
2023-09-19T04:50:35.346Z,17.92
2023-09-19T04:51:39.742Z,17.91
2023-09-19T04:52:44.246Z,17.89
2023-09-19T04:53:48.628Z,17.87
2023-09-19T04:54:53.042Z,17.85
2023-09-19T04:55:57.448Z,17.82
2023-09-19T04:57:01.833Z,17.81
2023-09-19T04:58:06.280Z,17.80
2023-09-19T04:59:10.673Z,17.79
2023-09-19T05:00:15.064Z,17.78
2023-09-19T05:01:19.511Z,17.78
2023-09-19T05:02:24.040Z,17.77
2023-09-19T05:03:28.385Z,17.77
2023-09-19T05:04:32.854Z,17.77
2023-09-19T05:05:37.261Z,17.77
2023-09-19T05:06:43.019Z,17.78
2023-09-19T05:07:46.122Z,17.78
2023-09-19T05:08:50.447Z,17.78
2023-09-19T05:09:54.839Z,17.79
2023-09-19T05:10:59.354Z,17.78
2023-09-19T05:12:03.675Z,17.77
2023-09-19T05:13:08.093Z,17.76
2023-09-19T05:14:12.587Z,17.76
2023-09-19T05:15:16.915Z,17.75
2023-09-19T05:16:21.441Z,17.76
2023-09-19T05:17:25.762Z,17.76
2023-09-19T05:18:30.086Z,17.76
2023-09-19T05:19:40.516Z,17.76
2023-09-19T05:20:43.545Z,17.76
2023-09-19T05:21:47.904Z,17.76
2023-09-19T05:22:52.337Z,17.77
2023-09-19T05:24:11.492Z,17.77
2023-09-19T05:25:14.161Z,17.77
2023-09-19T05:26:18.508Z,17.77
2023-09-19T05:27:22.920Z,17.77
2023-09-19T05:28:27.312Z,17.77
2023-09-19T05:29:31.692Z,17.78
2023-09-19T05:30:36.096Z,17.79
2023-09-19T05:31:40.601Z,17.80
2023-09-19T05:32:45.014Z,17.80
2023-09-19T05:33:49.332Z,17.81
2023-09-19T05:34:53.756Z,17.80
2023-09-19T05:35:58.104Z,17.79
2023-09-19T05:37:02.531Z,17.79
2023-09-19T05:38:06.945Z,17.78
2023-09-19T05:40:39.082Z,17.78
2023-09-19T05:41:43.266Z,17.79
2023-09-19T05:42:47.693Z,17.79
2023-09-19T05:43:52.124Z,17.79
2023-09-19T05:44:56.489Z,17.79
2023-09-19T05:46:00.919Z,17.79
2023-09-19T05:47:05.308Z,17.79
2023-09-19T05:48:09.663Z,17.78
2023-09-19T05:49:14.118Z,17.78
2023-09-19T05:50:18.555Z,17.78
2023-09-19T05:51:22.977Z,17.79
2023-09-19T05:52:27.398Z,17.79
2023-09-19T05:53:31.799Z,17.79
2023-09-19T05:54:36.213Z,17.80
2023-09-19T05:55:40.679Z,17.82
2023-09-19T05:56:45.046Z,17.82
2023-09-19T05:57:49.445Z,17.84
2023-09-19T05:58:53.902Z,17.86
2023-09-19T05:59:58.182Z,17.88
2023-09-19T06:01:02.669Z,17.90
2023-09-19T06:02:21.276Z,17.91
2023-09-19T06:03:24.399Z,17.94
2023-09-19T06:04:28.855Z,17.96
2023-09-19T06:05:33.249Z,17.98
2023-09-19T06:06:37.705Z,17.99
2023-09-19T06:07:42.170Z,18.01
2023-09-19T06:08:46.515Z,18.03
2023-09-19T06:09:50.985Z,18.05
2023-09-19T06:10:55.453Z,18.06
2023-09-19T06:11:59.774Z,18.07
2023-09-19T06:13:04.182Z,18.08
2023-09-19T06:14:08.612Z,18.09
2023-09-19T06:15:13.000Z,18.08
2023-09-19T06:16:17.460Z,18.08
2023-09-19T06:17:21.805Z,18.09
2023-09-19T06:18:26.157Z,18.10
2023-09-19T06:19:30.506Z,18.10
2023-09-19T06:20:34.881Z,18.06
2023-09-19T06:21:39.343Z,18.02
2023-09-19T06:22:43.802Z,17.99
2023-09-19T06:23:51.125Z,17.97
2023-09-19T06:24:54.655Z,17.96
2023-09-19T06:25:59.106Z,17.95
2023-09-19T06:27:03.467Z,17.96
2023-09-19T06:28:08.025Z,17.94
2023-09-19T06:29:12.382Z,17.95
2023-09-19T06:30:16.761Z,17.95
2023-09-19T06:31:21.197Z,17.96
2023-09-19T06:32:25.677Z,17.95
2023-09-19T06:33:30.033Z,17.95
2023-09-19T06:34:34.425Z,17.94
2023-09-19T06:35:52.910Z,17.95
2023-09-19T06:36:56.277Z,17.90
2023-09-19T06:38:00.719Z,17.89
2023-09-19T06:39:04.992Z,17.88
2023-09-19T06:40:09.476Z,17.86
2023-09-19T06:41:13.912Z,17.86
2023-09-19T06:42:19.776Z,17.84
2023-09-19T06:43:22.790Z,17.82
2023-09-19T06:44:27.104Z,17.80
2023-09-19T06:45:31.541Z,17.78
2023-09-19T06:46:36.042Z,17.77
2023-09-19T06:47:40.418Z,17.76
2023-09-19T06:48:44.868Z,17.79
2023-09-19T06:49:49.285Z,17.82
2023-09-19T06:50:53.622Z,17.85
2023-09-19T06:51:58.075Z,17.87
2023-09-19T06:53:02.479Z,17.89
2023-09-19T06:54:06.916Z,17.89
2023-09-19T06:55:11.297Z,17.89
2023-09-19T06:56:15.726Z,17.90
2023-09-19T06:57:20.230Z,17.90
2023-09-19T06:58:24.624Z,17.91
2023-09-19T06:59:29.046Z,17.92
2023-09-19T07:00:33.427Z,17.92
2023-09-19T07:01:37.924Z,17.93
2023-09-19T07:02:42.373Z,17.92
2023-09-19T07:03:46.697Z,17.92
2023-09-19T07:04:51.120Z,17.91
2023-09-19T07:05:55.435Z,17.89
2023-09-19T07:06:59.958Z,17.89
2023-09-19T07:08:04.452Z,17.90
2023-09-19T07:09:08.785Z,17.90
2023-09-19T07:10:13.227Z,17.91
2023-09-19T07:11:17.640Z,17.92
2023-09-19T07:12:22.055Z,17.93
2023-09-19T07:13:26.617Z,17.95
2023-09-19T07:14:30.916Z,17.95
2023-09-19T07:15:35.391Z,17.95
2023-09-19T07:16:39.788Z,17.95
2023-09-19T07:17:44.198Z,17.96
2023-09-19T07:18:48.598Z,17.96
2023-09-19T07:19:53.114Z,17.97
2023-09-19T07:20:57.494Z,17.99
2023-09-19T07:22:15.929Z,18.00
2023-09-19T07:23:19.434Z,18.01
2023-09-19T07:24:23.730Z,18.03
2023-09-19T07:25:28.263Z,18.04
2023-09-19T07:26:46.536Z,18.05
2023-09-19T07:27:49.896Z,18.08
2023-09-19T07:28:54.336Z,18.10
2023-09-19T07:29:58.673Z,18.11
2023-09-19T07:31:03.104Z,18.13
2023-09-19T07:32:07.501Z,18.16
2023-09-19T07:33:11.862Z,18.18
2023-09-19T07:34:16.121Z,18.20
2023-09-19T07:35:20.617Z,18.22
2023-09-19T07:36:25.026Z,18.23
2023-09-19T07:37:29.507Z,18.25
2023-09-19T07:38:33.896Z,18.26
2023-09-19T07:39:38.330Z,18.28
2023-09-19T07:40:42.745Z,18.29
2023-09-19T07:41:47.144Z,18.31
2023-09-19T07:42:51.905Z,18.33
2023-09-19T07:43:56.111Z,18.34
2023-09-19T07:45:00.381Z,18.36
2023-09-19T07:46:04.859Z,18.38
2023-09-19T07:47:10.520Z,18.39
2023-09-19T07:48:13.719Z,18.40
2023-09-19T07:49:18.476Z,18.42
2023-09-19T07:50:22.505Z,18.40
2023-09-19T07:51:32.960Z,18.40
2023-09-19T07:52:36.108Z,18.40
2023-09-19T07:53:40.777Z,18.43
2023-09-19T07:54:44.973Z,18.43
2023-09-19T07:55:49.682Z,18.45
2023-09-19T07:56:53.704Z,18.47
2023-09-19T07:57:58.125Z,18.50
2023-09-19T07:59:02.635Z,18.52
2023-09-19T08:00:06.937Z,18.53
2023-09-19T08:01:11.406Z,18.53
2023-09-19T08:02:15.775Z,18.55
2023-09-19T08:03:20.338Z,18.56
2023-09-19T08:04:24.784Z,18.57
2023-09-19T08:05:29.106Z,18.58
2023-09-19T08:06:33.450Z,18.59
2023-09-19T08:07:37.947Z,18.59
2023-09-19T08:08:42.308Z,18.60
2023-09-19T08:09:46.736Z,18.60
2023-09-19T08:10:51.159Z,18.61
2023-09-19T08:11:55.582Z,18.64
2023-09-19T08:13:00.034Z,18.68
2023-09-19T08:14:04.520Z,18.71
2023-09-19T08:15:08.835Z,18.74
2023-09-19T08:16:13.303Z,18.76
2023-09-19T08:17:17.700Z,18.77
2023-09-19T08:18:22.088Z,18.77
2023-09-19T08:19:26.469Z,18.79
2023-09-19T08:20:30.896Z,18.81
2023-09-19T08:21:35.322Z,18.84
2023-09-19T08:22:39.745Z,18.87
2023-09-19T08:23:44.170Z,18.88
2023-09-19T08:24:48.580Z,18.89
2023-09-19T08:25:53.150Z,18.88
2023-09-19T08:26:57.447Z,18.89
2023-09-19T08:28:01.862Z,18.90
2023-09-19T08:29:06.704Z,18.91
2023-09-19T08:30:10.748Z,18.92
2023-09-19T08:31:15.146Z,18.93
2023-09-19T08:32:19.620Z,18.92
2023-09-19T08:33:23.986Z,18.91
2023-09-19T08:34:28.505Z,18.89
2023-09-19T08:35:32.817Z,18.88
2023-09-19T08:36:37.110Z,18.88
2023-09-19T08:37:41.649Z,18.90
2023-09-19T08:38:45.996Z,18.92
2023-09-19T08:39:50.434Z,18.95
2023-09-19T08:40:54.925Z,18.99
2023-09-19T08:41:59.252Z,19.02
2023-09-19T08:43:03.671Z,19.05
2023-09-19T08:44:08.628Z,19.06
2023-09-19T08:45:12.486Z,19.08
2023-09-19T08:46:16.957Z,19.09
2023-09-19T08:47:21.432Z,19.07
2023-09-19T08:48:25.731Z,19.06
2023-09-19T08:49:30.210Z,19.04
2023-09-19T08:50:34.574Z,19.03
2023-09-19T08:51:39.002Z,19.02
2023-09-19T08:52:43.507Z,19.02
2023-09-19T08:53:47.799Z,19.02
2023-09-19T08:54:52.250Z,19.02
2023-09-19T08:55:56.689Z,19.04
2023-09-19T08:57:01.064Z,19.05
2023-09-19T08:58:05.530Z,19.06
2023-09-19T08:59:09.943Z,19.07
2023-09-19T09:00:14.362Z,19.08
2023-09-19T09:01:18.915Z,19.10
2023-09-19T09:02:23.224Z,19.09
2023-09-19T09:03:27.678Z,19.09
2023-09-19T09:04:35.097Z,19.10
2023-09-19T09:05:38.679Z,19.13
2023-09-19T09:06:43.034Z,19.16
2023-09-19T09:07:47.543Z,19.19
2023-09-19T09:08:51.900Z,19.22
2023-09-19T09:10:02.372Z,19.25
2023-09-19T09:11:05.456Z,19.28
2023-09-19T09:12:09.929Z,19.30
2023-09-19T09:13:14.268Z,19.32
2023-09-19T09:14:18.698Z,19.32
2023-09-19T09:15:23.157Z,19.32
2023-09-19T09:16:27.782Z,19.31
2023-09-19T09:17:32.083Z,19.32
2023-09-19T09:18:36.376Z,19.32
2023-09-19T09:19:40.872Z,19.34
2023-09-19T09:20:45.240Z,19.36
2023-09-19T09:21:49.691Z,19.37
2023-09-19T09:22:54.123Z,19.38
2023-09-19T09:23:58.529Z,19.38
2023-09-19T09:25:02.996Z,19.38
2023-09-19T09:26:07.413Z,19.38
2023-09-19T09:27:11.800Z,19.40
2023-09-19T09:28:16.268Z,19.44
2023-09-19T09:29:21.681Z,19.47
2023-09-19T09:30:25.300Z,19.51
2023-09-19T09:31:29.622Z,19.56
2023-09-19T09:32:33.969Z,19.60
2023-09-19T09:33:52.555Z,19.63
2023-09-19T09:34:57.966Z,19.67
2023-09-19T09:36:06.200Z,19.70
2023-09-19T09:37:23.392Z,19.72
2023-09-19T09:38:26.549Z,19.71
2023-09-19T09:39:30.881Z,19.72
2023-09-19T09:40:35.328Z,19.73
2023-09-19T09:41:39.685Z,19.73
2023-09-19T09:42:50.086Z,19.74
2023-09-19T09:43:53.234Z,19.75
2023-09-19T09:44:57.624Z,19.77
2023-09-19T09:46:02.068Z,19.80
2023-09-19T09:47:06.445Z,19.82
2023-09-19T09:48:10.848Z,19.84
2023-09-19T09:49:15.443Z,19.87
2023-09-19T09:50:19.685Z,19.90
2023-09-19T09:51:24.084Z,19.93
2023-09-19T09:52:28.586Z,19.94
2023-09-19T09:53:34.109Z,19.96
2023-09-19T09:54:38.097Z,19.97
2023-09-19T09:55:42.586Z,19.98
2023-09-19T09:56:47.000Z,19.97
2023-09-19T09:57:51.431Z,19.93
2023-09-19T09:58:55.927Z,19.92
2023-09-19T10:00:00.600Z,19.89
2023-09-19T10:01:04.714Z,19.86
2023-09-19T10:02:09.275Z,19.85
2023-09-19T10:03:13.800Z,19.86
2023-09-19T10:04:18.100Z,19.84
2023-09-19T10:05:22.653Z,19.82
2023-09-19T10:06:27.114Z,19.79
2023-09-19T10:07:31.448Z,19.76
2023-09-19T10:08:35.837Z,19.73
2023-09-19T10:09:40.243Z,19.69
2023-09-19T10:10:44.958Z,19.66
2023-09-19T10:11:49.165Z,19.61
2023-09-19T10:12:53.561Z,19.58
2023-09-19T10:13:57.994Z,19.56
2023-09-19T10:15:02.392Z,19.55
2023-09-19T10:16:06.862Z,19.55
2023-09-19T10:17:11.315Z,19.56
2023-09-19T10:18:15.688Z,19.57
2023-09-19T10:19:20.119Z,19.59
2023-09-19T10:20:24.537Z,19.59
2023-09-19T10:21:29.081Z,19.62
2023-09-19T10:22:33.476Z,19.63
2023-09-19T10:23:37.930Z,19.65
2023-09-19T10:24:56.756Z,19.67
2023-09-19T10:25:46.789Z,19.70
2023-09-19T10:26:51.125Z,19.70
2023-09-19T10:27:55.547Z,19.71
2023-09-19T10:29:00.049Z,19.72
2023-09-19T10:30:04.467Z,19.74
2023-09-19T10:31:08.892Z,19.74
2023-09-19T10:32:13.523Z,19.76
2023-09-19T10:33:17.725Z,19.75
2023-09-19T10:34:22.133Z,19.76
2023-09-19T10:35:26.573Z,19.77
2023-09-19T10:36:30.981Z,19.78
2023-09-19T10:37:35.455Z,19.78
2023-09-19T10:38:40.021Z,19.79
2023-09-19T10:39:44.218Z,19.82
2023-09-19T10:40:48.727Z,19.84
2023-09-19T10:41:53.055Z,19.88
2023-09-19T10:42:57.519Z,19.90
2023-09-19T10:44:02.073Z,19.92
2023-09-19T10:45:06.462Z,19.95
2023-09-19T10:46:10.925Z,19.99
2023-09-19T10:47:15.350Z,20.00
2023-09-19T10:48:19.753Z,20.02
2023-09-19T10:49:24.195Z,20.03
2023-09-19T10:50:28.670Z,20.06
2023-09-19T10:51:33.047Z,20.08
2023-09-19T10:52:37.486Z,20.11
2023-09-19T10:53:41.907Z,20.14
2023-09-19T10:54:46.304Z,20.18
2023-09-19T10:55:50.788Z,20.21
2023-09-19T10:56:55.128Z,20.24
2023-09-19T10:57:59.545Z,20.27
2023-09-19T10:59:04.045Z,20.28
2023-09-19T11:00:22.594Z,20.28
2023-09-19T11:01:25.694Z,20.26
2023-09-19T11:02:30.199Z,20.25
2023-09-19T11:03:34.804Z,20.25
2023-09-19T11:04:52.951Z,20.26
2023-09-19T11:05:56.225Z,20.29
2023-09-19T11:07:00.603Z,20.32
2023-09-19T11:08:05.138Z,20.35
2023-09-19T11:09:09.443Z,20.39
2023-09-19T11:10:13.873Z,20.40
2023-09-19T11:11:18.274Z,20.42
2023-09-19T11:12:36.801Z,20.42
2023-09-19T11:13:40.110Z,20.42
2023-09-19T11:14:50.500Z,20.42
2023-09-19T11:15:53.605Z,20.42
2023-09-19T11:16:57.961Z,20.42
2023-09-19T11:18:02.453Z,20.43
2023-09-19T11:19:06.832Z,20.44
2023-09-19T11:20:11.249Z,20.46
2023-09-19T11:21:15.776Z,20.48
2023-09-19T11:22:23.152Z,20.50
2023-09-19T11:23:26.706Z,20.52
2023-09-19T11:24:31.149Z,20.54
2023-09-19T11:25:35.978Z,20.56
2023-09-19T11:26:40.052Z,20.57
2023-09-19T11:27:44.447Z,20.56
2023-09-19T11:28:48.929Z,20.57
2023-09-19T11:29:53.367Z,20.59
2023-09-19T11:30:57.836Z,20.61
2023-09-19T11:32:02.346Z,20.63
2023-09-19T11:33:06.805Z,20.65
2023-09-19T11:34:11.201Z,20.67
2023-09-19T11:35:15.746Z,20.67
2023-09-19T11:36:20.088Z,20.68
2023-09-19T11:37:24.530Z,20.68
2023-09-19T11:38:28.930Z,20.67
2023-09-19T11:39:33.401Z,20.69
2023-09-19T11:40:37.864Z,20.69
2023-09-19T11:41:42.321Z,20.69
2023-09-19T11:42:46.773Z,20.69
2023-09-19T11:43:52.121Z,20.69
2023-09-19T11:44:55.524Z,20.66
2023-09-19T11:46:00.105Z,20.66
2023-09-19T11:47:04.618Z,20.64
2023-09-19T11:48:08.966Z,20.65
2023-09-19T11:49:13.373Z,20.66
2023-09-19T11:50:17.874Z,20.67
2023-09-19T11:51:22.263Z,20.68
2023-09-19T11:52:26.735Z,20.66
2023-09-19T11:53:31.174Z,20.65
2023-09-19T11:54:35.606Z,20.63
2023-09-19T11:55:40.147Z,20.64
2023-09-19T11:56:44.556Z,20.63
2023-09-19T11:57:49.239Z,20.64
2023-09-19T11:58:53.419Z,20.66
2023-09-19T11:59:57.825Z,20.69
2023-09-19T12:01:02.303Z,20.72
2023-09-19T12:02:06.702Z,20.75
2023-09-19T12:03:11.152Z,20.81
2023-09-19T12:04:15.619Z,20.85
2023-09-19T12:05:23.008Z,20.84
2023-09-19T12:06:26.562Z,20.84
2023-09-19T12:07:31.011Z,20.84
2023-09-19T12:08:35.411Z,20.81
2023-09-19T12:09:39.866Z,20.79
2023-09-19T12:10:44.364Z,20.79
2023-09-19T12:11:48.743Z,20.79
2023-09-19T12:12:53.230Z,20.78
2023-09-19T12:13:57.677Z,20.76
2023-09-19T12:15:02.073Z,20.74
2023-09-19T12:16:06.534Z,20.73
2023-09-19T12:17:11.042Z,20.72
2023-09-19T12:18:15.530Z,20.73
2023-09-19T12:19:19.837Z,20.72
2023-09-19T12:20:24.291Z,20.71
2023-09-19T12:21:28.842Z,20.71
2023-09-19T12:22:33.189Z,20.73
2023-09-19T12:23:37.584Z,20.77
2023-09-19T12:24:41.998Z,20.80
2023-09-19T12:25:46.476Z,20.80
2023-09-19T12:26:50.971Z,20.79
2023-09-19T12:27:55.373Z,20.75
2023-09-19T12:28:59.825Z,20.73
2023-09-19T12:30:17.168Z,20.71
2023-09-19T12:31:08.738Z,20.69
2023-09-19T12:32:13.126Z,20.69
2023-09-19T12:33:17.543Z,20.67
2023-09-19T12:34:22.060Z,20.66
2023-09-19T12:35:26.475Z,20.64
2023-09-19T12:36:33.942Z,20.63
2023-09-19T12:37:37.511Z,20.61
2023-09-19T12:38:41.764Z,20.60
2023-09-19T12:39:52.221Z,20.58
2023-09-19T12:40:55.434Z,20.59
2023-09-19T12:42:05.790Z,20.62
2023-09-19T12:43:08.891Z,20.66
2023-09-19T12:44:13.356Z,20.70
2023-09-19T12:45:20.741Z,20.74
2023-09-19T12:46:25.522Z,20.77
2023-09-19T12:47:34.779Z,20.78
2023-09-19T12:48:51.924Z,20.75
2023-09-19T12:49:55.234Z,20.75
2023-09-19T12:50:59.536Z,20.75
2023-09-19T12:52:04.070Z,20.76
2023-09-19T12:53:08.426Z,20.75
2023-09-19T12:54:12.804Z,20.75
2023-09-19T12:55:17.247Z,20.75
2023-09-19T12:56:21.651Z,20.76
2023-09-19T12:57:26.095Z,20.76
2023-09-19T12:58:30.604Z,20.76
2023-09-19T12:59:40.677Z,20.76
2023-09-19T13:00:41.592Z,20.76
2023-09-19T13:01:46.167Z,20.76
2023-09-19T13:02:50.537Z,20.77
2023-09-19T13:03:55.028Z,20.79
2023-09-19T13:05:13.388Z,20.80
2023-09-19T13:06:16.768Z,20.82
2023-09-19T13:07:21.302Z,20.83
2023-09-19T13:08:25.629Z,20.83
2023-09-19T13:09:30.057Z,20.82
2023-09-19T13:10:34.502Z,20.80
2023-09-19T13:11:38.924Z,20.79
2023-09-19T13:12:43.328Z,20.75
2023-09-19T13:13:50.469Z,20.73
2023-09-19T13:14:52.183Z,20.72
2023-09-19T13:15:56.717Z,20.71
2023-09-19T13:17:01.076Z,20.71
2023-09-19T13:18:05.550Z,20.71
2023-09-19T13:20:37.292Z,20.70
2023-09-19T13:21:41.673Z,20.71
2023-09-19T13:22:46.211Z,20.73
2023-09-19T13:23:50.533Z,20.74
2023-09-19T13:24:54.976Z,20.75
2023-09-19T13:25:59.454Z,20.75
2023-09-19T13:27:03.825Z,20.75
2023-09-19T13:28:08.242Z,20.75
2023-09-19T13:29:12.760Z,20.76
2023-09-19T13:30:17.119Z,20.76
2023-09-19T13:31:21.657Z,20.76
2023-09-19T13:32:26.022Z,20.74
2023-09-19T13:33:32.036Z,20.72
2023-09-19T13:34:34.909Z,20.71
2023-09-19T13:35:39.294Z,20.71
2023-09-19T13:36:43.756Z,20.71
2023-09-19T13:37:48.321Z,20.71
2023-09-19T13:38:52.646Z,20.72
2023-09-19T13:40:00.084Z,20.72
2023-09-19T13:41:03.662Z,20.70
2023-09-19T13:42:08.018Z,20.69
2023-09-19T13:43:12.541Z,20.68
2023-09-19T13:44:16.961Z,20.65
2023-09-19T13:45:21.345Z,20.64
2023-09-19T13:46:25.845Z,20.63
2023-09-19T13:47:30.464Z,20.62
2023-09-19T13:48:34.770Z,20.62
2023-09-19T13:49:39.203Z,20.61
2023-09-19T13:50:46.667Z,20.59
2023-09-19T13:51:50.242Z,20.56
2023-09-19T13:52:54.689Z,20.54
2023-09-19T13:53:59.069Z,20.53
2023-09-19T13:55:03.537Z,20.53
2023-09-19T13:56:08.005Z,20.54
2023-09-19T13:57:12.397Z,20.54
2023-09-19T13:58:16.874Z,20.55